createdAt,value
2018-03-28T00:01:11.409Z,99205.83
2018-03-28T00:03:37.649Z,99198.53
2018-03-28T00:06:03.605Z,99193.64
2018-03-28T00:08:29.564Z,99186.95
2018-03-28T00:10:55.517Z,99190.55
2018-03-28T00:13:21.478Z,99183.51
2018-03-28T00:15:47.395Z,99186.45
2018-03-28T00:18:13.363Z,99181.39
2018-03-28T00:20:39.301Z,99179.91
2018-03-28T00:23:05.251Z,99178.40
2018-03-28T00:25:31.214Z,99176.46
2018-03-28T00:27:57.137Z,99173.24
2018-03-28T00:30:23.074Z,99169.48
2018-03-28T00:32:49.053Z,99170.41
2018-03-28T00:35:14.981Z,99169.86
2018-03-28T00:37:41.204Z,99161.95
2018-03-28T00:40:07.142Z,99164.71
2018-03-28T00:42:33.090Z,99157.92
2018-03-28T00:44:59.030Z,99158.58
2018-03-28T00:47:25.294Z,99148.59
2018-03-28T00:49:51.231Z,99150.48
2018-03-28T00:52:17.171Z,99149.64
2018-03-28T00:54:43.104Z,99148.91
2018-03-28T00:57:09.036Z,99150.02
2018-03-28T00:59:35.010Z,99144.30
2018-03-28T01:02:00.967Z,99138.38
2018-03-28T01:04:26.890Z,99139.05
2018-03-28T01:06:52.845Z,99129.22
2018-03-28T01:09:18.814Z,99131.31
2018-03-28T01:11:44.738Z,99133.80
2018-03-28T01:14:10.655Z,99128.14
2018-03-28T01:16:36.629Z,99125.45
2018-03-28T01:19:02.606Z,99122.56
2018-03-28T01:21:31.703Z,99123.33
2018-03-28T01:23:57.884Z,99120.56
2018-03-28T01:26:23.822Z,99123.73
2018-03-28T01:28:49.792Z,99120.20
2018-03-28T01:31:16.075Z,99114.20
2018-03-28T01:33:42.029Z,99109.16
2018-03-28T01:36:07.959Z,99113.02
2018-03-28T01:38:33.906Z,99111.88
2018-03-28T01:40:59.850Z,99105.43
2018-03-28T01:43:25.784Z,99105.10
2018-03-28T01:45:51.698Z,99095.91
2018-03-28T01:48:17.614Z,99093.11
2018-03-28T01:50:43.530Z,99091.44
2018-03-28T01:53:09.452Z,99086.70
2018-03-28T01:55:35.448Z,99075.95
2018-03-28T01:58:01.372Z,99077.16
2018-03-28T02:00:27.325Z,99071.52
2018-03-28T02:02:53.259Z,99070.91
2018-03-28T02:05:19.174Z,99072.76
2018-03-28T02:07:45.096Z,99073.86
2018-03-28T02:10:11.014Z,99070.27
2018-03-28T02:12:37.175Z,99068.16
2018-03-28T02:15:03.125Z,99065.75
2018-03-28T02:17:29.065Z,99062.17
2018-03-28T02:19:55.016Z,99060.66
2018-03-28T02:22:20.969Z,99059.94
2018-03-28T02:24:47.063Z,99055.31
2018-03-28T02:27:13.002Z,99053.09
2018-03-28T02:29:38.930Z,99038.26
2018-03-28T02:32:04.855Z,99049.33
2018-03-28T02:34:30.801Z,99048.34
2018-03-28T02:36:56.744Z,99051.76
2018-03-28T02:39:22.701Z,99041.37
2018-03-28T02:41:48.657Z,99039.78
2018-03-28T02:44:14.599Z,99029.49
2018-03-28T02:46:40.579Z,99023.64
2018-03-28T02:49:06.610Z,99019.81
2018-03-28T02:51:32.535Z,99021.69
2018-03-28T02:53:58.507Z,99020.60
2018-03-28T02:56:24.445Z,99026.07
2018-03-28T02:58:50.367Z,99021.69
2018-03-28T03:01:16.309Z,99019.75
2018-03-28T03:03:42.262Z,99018.72
2018-03-28T03:06:08.231Z,99017.31
2018-03-28T03:08:34.170Z,99007.67
2018-03-28T03:11:00.122Z,99004.27
2018-03-28T03:13:26.054Z,99005.61
2018-03-28T03:15:52.014Z,99009.39
2018-03-28T03:18:17.993Z,99009.06
2018-03-28T03:20:43.925Z,99000.23
2018-03-28T03:23:09.886Z,98997.54
2018-03-28T03:25:35.834Z,98996.77
2018-03-28T03:28:01.847Z,98996.50
2018-03-28T03:30:27.846Z,98992.19
2018-03-28T03:32:53.785Z,98991.34
2018-03-28T03:35:19.737Z,98985.02
2018-03-28T03:37:45.705Z,98988.29
2018-03-28T03:40:11.662Z,98981.01
2018-03-28T03:42:37.617Z,98985.53
2018-03-28T03:45:03.561Z,98983.89
2018-03-28T03:47:29.501Z,98989.34
2018-03-28T03:49:55.424Z,98993.80
2018-03-28T03:52:21.355Z,98987.72
2018-03-28T03:54:47.305Z,98989.69
2018-03-28T03:57:13.257Z,98981.86
2018-03-28T03:59:39.213Z,98979.44
2018-03-28T04:02:05.161Z,98985.78
2018-03-28T04:04:31.109Z,98996.52
2018-03-28T04:06:57.064Z,98988.45
2018-03-28T04:09:23.017Z,98987.47
2018-03-28T04:11:48.961Z,98989.09
2018-03-28T04:14:14.933Z,98983.59
2018-03-28T04:16:40.855Z,98979.98
2018-03-28T04:19:06.830Z,98988.55
2018-03-28T04:21:32.825Z,98982.05
2018-03-28T04:23:58.779Z,98975.39
2018-03-28T04:26:24.765Z,98969.90
2018-03-28T04:28:50.691Z,98978.14
2018-03-28T04:31:16.641Z,98977.52
2018-03-28T04:33:42.617Z,98976.50
2018-03-28T04:36:08.593Z,98975.05
2018-03-28T04:38:34.565Z,98969.34
2018-03-28T04:41:00.501Z,98967.53
2018-03-28T04:43:26.446Z,98962.84
2018-03-28T04:45:52.397Z,98957.52
2018-03-28T04:48:18.345Z,98947.20
2018-03-28T04:50:44.326Z,98944.66
2018-03-28T04:53:10.275Z,98943.19
2018-03-28T04:55:36.223Z,98939.09
2018-03-28T04:58:02.153Z,98935.21
2018-03-28T05:00:28.102Z,98944.52
2018-03-28T05:02:54.093Z,98944.68
2018-03-28T05:05:20.048Z,98942.83
2018-03-28T05:07:46.044Z,98937.32
2018-03-28T05:10:11.970Z,98927.25
2018-03-28T05:12:38.914Z,98923.19
2018-03-28T05:15:04.835Z,98925.98
2018-03-28T05:17:30.781Z,98926.70
2018-03-28T05:19:56.724Z,98936.31
2018-03-28T05:22:22.680Z,98930.55
2018-03-28T05:24:48.717Z,98930.84
2018-03-28T05:27:14.982Z,98929.91
2018-03-28T05:29:41.035Z,98929.57
2018-03-28T05:32:06.987Z,98935.23
2018-03-28T05:34:32.921Z,98928.01
2018-03-28T05:36:58.866Z,98932.42
2018-03-28T05:39:24.828Z,98933.23
2018-03-28T05:41:50.796Z,98928.23
2018-03-28T05:44:16.727Z,98934.16
2018-03-28T05:46:42.676Z,98931.45
2018-03-28T05:49:08.600Z,98929.06
2018-03-28T05:51:34.550Z,98931.83
2018-03-28T05:54:00.526Z,98930.81
2018-03-28T05:56:26.476Z,98933.88
2018-03-28T05:58:52.457Z,98935.63
2018-03-28T06:01:18.384Z,98937.30
2018-03-28T06:03:44.346Z,98932.61
2018-03-28T06:06:10.294Z,98929.95
2018-03-28T06:08:36.270Z,98930.27
2018-03-28T06:11:02.214Z,98930.08
2018-03-28T06:13:28.150Z,98927.78
2018-03-28T06:15:54.076Z,98922.98
2018-03-28T06:18:20.026Z,98922.87
2018-03-28T06:20:45.964Z,98925.67
2018-03-28T06:23:11.931Z,98914.51
2018-03-28T06:25:37.914Z,98915.27
2018-03-28T06:28:03.868Z,98907.02
2018-03-28T06:30:29.890Z,98908.03
2018-03-28T06:32:55.822Z,98910.34
2018-03-28T06:35:21.807Z,98904.42
2018-03-28T06:37:47.782Z,98902.13
2018-03-28T06:40:13.708Z,98893.97
2018-03-28T06:42:39.662Z,98888.20
2018-03-28T06:45:05.584Z,98892.00
2018-03-28T06:47:31.548Z,98889.67
2018-03-28T06:49:57.470Z,98890.14
2018-03-28T06:52:23.437Z,98897.19
2018-03-28T06:54:49.380Z,98894.20
2018-03-28T06:57:15.320Z,98881.91
2018-03-28T06:59:41.301Z,98884.28
2018-03-28T07:02:07.216Z,98883.84
2018-03-28T07:04:33.192Z,98882.29
2018-03-28T07:06:59.187Z,98881.62
2018-03-28T07:09:25.156Z,98877.41
2018-03-28T07:11:51.104Z,98878.63
2018-03-28T07:14:17.073Z,98875.94
2018-03-28T07:16:42.999Z,98866.33
2018-03-28T07:19:08.942Z,98868.15
2018-03-28T07:21:34.878Z,98870.34
2018-03-28T07:24:00.822Z,98862.05
2018-03-28T07:26:26.792Z,98856.24
2018-03-28T07:28:52.719Z,98859.98
2018-03-28T07:31:18.685Z,98852.47
2018-03-28T07:33:44.677Z,98858.20
2018-03-28T07:36:10.688Z,98849.20
2018-03-28T07:38:36.637Z,98843.69
2018-03-28T07:41:02.814Z,98844.13
2018-03-28T07:43:28.839Z,98839.18
2018-03-28T07:45:54.783Z,98846.32
2018-03-28T07:48:20.730Z,98839.03
2018-03-28T07:50:46.725Z,98840.45
2018-03-28T07:53:12.727Z,98835.97
2018-03-28T07:55:38.679Z,98841.48
2018-03-28T07:58:04.674Z,98835.38
2018-03-28T08:00:30.595Z,98842.02
2018-03-28T08:02:56.585Z,98845.72
2018-03-28T08:05:22.535Z,98835.56
2018-03-28T08:07:48.485Z,98841.09
2018-03-28T08:10:14.439Z,98838.79
2018-03-28T08:12:40.358Z,98828.78
2018-03-28T08:15:06.336Z,98827.25
2018-03-28T08:17:32.259Z,98827.08
2018-03-28T08:19:58.247Z,98822.90
2018-03-28T08:22:24.171Z,98822.16
2018-03-28T08:24:50.153Z,98812.05
2018-03-28T08:27:16.110Z,98815.70
2018-03-28T08:29:42.035Z,98807.08
2018-03-28T08:32:07.990Z,98807.11
2018-03-28T08:34:33.954Z,98806.75
2018-03-28T08:36:59.899Z,98805.95
2018-03-28T08:39:25.817Z,98804.27
2018-03-28T08:41:51.775Z,98806.86
2018-03-28T08:44:17.722Z,98802.25
2018-03-28T08:46:43.697Z,98799.32
2018-03-28T08:49:09.644Z,98796.79
2018-03-28T08:51:35.569Z,98799.30
2018-03-28T08:54:01.519Z,98793.61
2018-03-28T08:56:27.750Z,98790.69
2018-03-28T08:58:53.690Z,98789.70
2018-03-28T09:01:19.634Z,98795.95
2018-03-28T09:03:45.581Z,98783.88
2018-03-28T09:06:11.521Z,98783.08
2018-03-28T09:08:37.441Z,98783.19
2018-03-28T09:11:03.450Z,98773.20
2018-03-28T09:13:29.439Z,98770.70
2018-03-28T09:15:55.381Z,98772.38
2018-03-28T09:18:21.458Z,98764.86
2018-03-28T09:20:47.490Z,98770.33
2018-03-28T09:23:13.452Z,98762.77
2018-03-28T09:25:39.786Z,98761.52
2018-03-28T09:28:05.735Z,98761.92
2018-03-28T09:30:31.706Z,98758.63
2018-03-28T09:32:57.648Z,98759.86
2018-03-28T09:35:23.640Z,98750.23
2018-03-28T09:37:49.584Z,98754.42
2018-03-28T09:40:15.532Z,98751.08
2018-03-28T09:42:41.516Z,98751.49
2018-03-28T09:45:07.434Z,98744.80
2018-03-28T09:47:33.418Z,98756.07
2018-03-28T09:49:59.360Z,98753.98
2018-03-28T09:52:25.284Z,98751.02
2018-03-28T09:54:51.238Z,98751.03
2018-03-28T09:57:17.190Z,98754.34
2018-03-28T09:59:43.126Z,98747.27
2018-03-28T10:02:09.083Z,98746.78
2018-03-28T10:04:35.026Z,98745.88
2018-03-28T10:07:00.963Z,98744.26
2018-03-28T10:09:26.918Z,98738.80
2018-03-28T10:11:52.859Z,98737.95
2018-03-28T10:14:18.782Z,98727.10
2018-03-28T10:16:44.729Z,98730.84
2018-03-28T10:19:10.974Z,98726.27
2018-03-28T10:21:37.000Z,98719.17
2018-03-28T10:24:02.927Z,98712.81
2018-03-28T10:26:28.852Z,98718.20
2018-03-28T10:28:54.766Z,98724.90
2018-03-28T10:31:20.733Z,98729.11
2018-03-28T10:33:46.676Z,98732.44
2018-03-28T10:36:12.989Z,98731.97
2018-03-28T10:38:38.930Z,98728.22
2018-03-28T10:41:04.870Z,98722.78
2018-03-28T10:43:30.821Z,98715.23
2018-03-28T10:45:56.776Z,98716.04
2018-03-28T10:48:22.742Z,98711.41
2018-03-28T10:50:48.688Z,98704.27
2018-03-28T10:53:14.655Z,98701.78
2018-03-28T10:55:40.579Z,98698.86
2018-03-28T10:58:06.651Z,98695.52
2018-03-28T11:00:32.591Z,98696.30
2018-03-28T11:02:58.521Z,98689.97
2018-03-28T11:05:24.439Z,98693.41
2018-03-28T11:07:50.401Z,98684.14
2018-03-28T11:10:16.309Z,98681.70
2018-03-28T11:12:42.254Z,98690.00
2018-03-28T11:15:08.214Z,98686.62
2018-03-28T11:17:34.256Z,98691.27
2018-03-28T11:20:00.183Z,98697.50
2018-03-28T11:22:26.136Z,98690.29
2018-03-28T11:24:52.098Z,98689.45
2018-03-28T11:27:18.063Z,98687.02
2018-03-28T11:29:44.011Z,98681.81
2018-03-28T11:32:10.181Z,98691.31
2018-03-28T11:34:36.101Z,98687.52
2018-03-28T11:37:02.045Z,98692.13
2018-03-28T11:39:28.019Z,98687.50
2018-03-28T11:41:53.987Z,98684.07
2018-03-28T11:44:19.992Z,98683.17
2018-03-28T11:46:45.927Z,98680.58
2018-03-28T11:49:11.877Z,98686.83
2018-03-28T11:51:37.821Z,98685.58
2018-03-28T11:54:03.776Z,98673.86
2018-03-28T11:56:29.737Z,98666.39
2018-03-28T11:58:55.663Z,98660.03
2018-03-28T12:01:21.744Z,98662.45
2018-03-28T12:03:47.677Z,98658.19
2018-03-28T12:06:13.625Z,98664.08
2018-03-28T12:08:39.544Z,98665.35
2018-03-28T12:11:05.491Z,98667.06
2018-03-28T12:16:04.179Z,98669.53
2018-03-28T12:18:30.093Z,98673.34
2018-03-28T12:20:56.021Z,98667.12
2018-03-28T12:23:21.962Z,98664.96
2018-03-28T12:25:47.888Z,98667.06
2018-03-28T12:28:13.836Z,98666.68
2018-03-28T12:30:39.784Z,98661.59
2018-03-28T12:33:05.762Z,98659.02
2018-03-28T12:35:31.688Z,98662.02
2018-03-28T12:37:57.618Z,98653.28
2018-03-28T12:40:23.570Z,98655.72
2018-03-28T12:42:49.515Z,98648.89
2018-03-28T12:45:15.448Z,98648.47
2018-03-28T12:47:41.386Z,98651.05
2018-03-28T12:50:07.316Z,98642.27
2018-03-28T12:52:33.280Z,98636.69
2018-03-28T12:54:59.198Z,98635.28
2018-03-28T12:57:25.148Z,98632.14
2018-03-28T12:59:51.144Z,98625.41
2018-03-28T13:02:17.074Z,98631.37
2018-03-28T13:04:43.029Z,98632.88
2018-03-28T13:07:08.956Z,98625.70
2018-03-28T13:09:34.886Z,98623.16
2018-03-28T13:12:00.844Z,98625.22
2018-03-28T13:14:26.810Z,98625.68
2018-03-28T13:16:52.756Z,98619.77
2018-03-28T13:19:18.709Z,98611.92
2018-03-28T13:21:44.646Z,98613.92
2018-03-28T13:24:10.599Z,98610.34
2018-03-28T13:26:36.536Z,98606.40
2018-03-28T13:29:02.460Z,98604.18
2018-03-28T13:31:28.404Z,98609.34
2018-03-28T13:33:54.344Z,98599.22
2018-03-28T13:36:20.290Z,98595.53
2018-03-28T13:38:46.267Z,98591.72
2018-03-28T13:41:12.203Z,98588.45
2018-03-28T13:43:38.154Z,98594.62
2018-03-28T13:46:04.112Z,98587.97
2018-03-28T13:48:30.073Z,98593.11
2018-03-28T13:50:56.033Z,98584.09
2018-03-28T13:53:22.001Z,98581.73
2018-03-28T13:55:47.957Z,98580.38
2018-03-28T13:58:13.941Z,98580.84
2018-03-28T14:00:39.880Z,98572.80
2018-03-28T14:03:05.827Z,98569.90
2018-03-28T14:05:31.817Z,98564.56
2018-03-28T14:07:57.775Z,98560.19
2018-03-28T14:10:23.726Z,98557.94
2018-03-28T14:12:49.685Z,98558.52
2018-03-28T14:15:15.639Z,98557.47
2018-03-28T14:17:41.601Z,98553.34
2018-03-28T14:20:07.532Z,98547.47
2018-03-28T14:22:33.482Z,98550.11
2018-03-28T14:24:59.443Z,98547.28
2018-03-28T14:27:25.407Z,98551.88
2018-03-28T14:29:51.394Z,98552.00
2018-03-28T14:32:17.349Z,98546.80
2018-03-28T14:34:43.329Z,98555.98
2018-03-28T14:37:09.269Z,98554.34
2018-03-28T14:39:35.280Z,98546.77
2018-03-28T14:42:01.243Z,98545.14
2018-03-28T14:44:27.221Z,98543.86
2018-03-28T14:46:53.229Z,98543.08
2018-03-28T14:49:19.183Z,98548.00
2018-03-28T14:51:45.115Z,98541.75
2018-03-28T14:54:11.079Z,98538.16
2018-03-28T14:56:37.037Z,98536.98
2018-03-28T14:59:02.979Z,98530.94
2018-03-28T15:01:28.971Z,98525.42
2018-03-28T15:03:54.899Z,98534.32
2018-03-28T15:06:20.860Z,98525.00
2018-03-28T15:08:46.819Z,98515.97
2018-03-28T15:11:12.783Z,98516.80
2018-03-28T15:13:38.745Z,98500.85
2018-03-28T15:16:04.679Z,98502.54
2018-03-28T15:18:30.683Z,98497.86
2018-03-28T15:20:56.637Z,98492.52
2018-03-28T15:23:22.615Z,98497.31
2018-03-28T15:25:48.551Z,98500.52
2018-03-28T15:28:14.525Z,98490.52
2018-03-28T15:30:40.456Z,98500.45
2018-03-28T15:33:06.427Z,98492.49
2018-03-28T15:35:32.381Z,98492.09
2018-03-28T15:37:58.338Z,98492.48
2018-03-28T15:40:24.336Z,98480.67
2018-03-28T15:42:50.280Z,98480.38
2018-03-28T15:45:16.273Z,98479.71
2018-03-28T15:47:42.228Z,98484.48
2018-03-28T15:50:08.192Z,98481.05
2018-03-28T15:52:34.127Z,98476.15
2018-03-28T15:55:00.201Z,98473.53
2018-03-28T15:57:26.156Z,98470.95
2018-03-28T15:59:52.130Z,98462.31
2018-03-28T16:02:18.090Z,98462.37
2018-03-28T16:04:44.032Z,98461.02
2018-03-28T16:07:09.990Z,98457.83
2018-03-28T16:09:35.968Z,98462.02
2018-03-28T16:12:01.915Z,98451.14
2018-03-28T16:14:27.874Z,98449.22
2018-03-28T16:16:53.838Z,98452.64
2018-03-28T16:19:19.828Z,98449.81
2018-03-28T16:21:46.836Z,98452.29
2018-03-28T16:24:12.803Z,98447.45
2018-03-28T16:26:38.780Z,98443.29
2018-03-28T16:29:04.770Z,98443.67
2018-03-28T16:31:30.750Z,98440.80
2018-03-28T16:33:56.706Z,98433.30
2018-03-28T16:36:22.630Z,98439.99
2018-03-28T16:38:48.588Z,98442.92
2018-03-28T16:41:14.825Z,98433.39
2018-03-28T16:43:40.785Z,98431.23
2018-03-28T16:46:06.734Z,98424.39
2018-03-28T16:48:32.678Z,98425.87
2018-03-28T16:50:58.694Z,98427.17
2018-03-28T16:53:24.618Z,98425.44
2018-03-28T16:55:50.610Z,98424.17
2018-03-28T16:58:16.547Z,98421.52
2018-03-28T17:00:42.559Z,98414.02
2018-03-28T17:03:08.597Z,98405.72
2018-03-28T17:05:34.660Z,98407.37
2018-03-28T17:08:00.618Z,98397.36
2018-03-28T17:10:26.602Z,98401.02
2018-03-28T17:12:52.534Z,98391.94
2018-03-28T17:15:18.646Z,98392.14
2018-03-28T17:17:44.634Z,98392.50
2018-03-28T17:20:10.580Z,98388.70
2018-03-28T17:22:36.528Z,98379.91
2018-03-28T17:25:02.507Z,98377.48
2018-03-28T17:27:28.470Z,98371.34
2018-03-28T17:29:54.549Z,98377.36
2018-03-28T17:32:20.503Z,98369.78
2018-03-28T17:34:46.434Z,98368.28
2018-03-28T17:37:12.378Z,98375.40
2018-03-28T17:39:38.313Z,98368.58
2018-03-28T17:42:04.299Z,98376.95
2018-03-28T17:44:30.321Z,98373.98
2018-03-28T17:46:56.251Z,98370.37
2018-03-28T17:49:22.261Z,98366.36
2018-03-28T17:51:48.214Z,98361.11
2018-03-28T17:54:14.197Z,98368.17
2018-03-28T17:56:40.153Z,98364.55
2018-03-28T17:59:06.104Z,98365.70
2018-03-28T18:01:32.056Z,98362.43
2018-03-28T18:03:58.005Z,98364.83
2018-03-28T18:06:24.137Z,98364.42
2018-03-28T18:08:50.103Z,98360.03
2018-03-28T18:11:16.065Z,98357.14
2018-03-28T18:13:42.015Z,98370.56
2018-03-28T18:16:08.054Z,98357.17
2018-03-28T18:18:34.002Z,98364.85
2018-03-28T18:21:00.024Z,98352.68
2018-03-28T18:23:25.991Z,98352.72
2018-03-28T18:25:51.945Z,98342.47
2018-03-28T18:28:17.878Z,98346.41
2018-03-28T18:30:43.813Z,98335.95
2018-03-28T18:33:09.792Z,98334.20
2018-03-28T18:35:35.747Z,98332.54
2018-03-28T18:38:01.691Z,98334.00
2018-03-28T18:40:27.796Z,98331.97
2018-03-28T18:42:53.708Z,98325.27
2018-03-28T18:45:19.695Z,98323.09
2018-03-28T18:47:45.671Z,98317.67
2018-03-28T18:50:11.621Z,98313.50
2018-03-28T18:52:37.574Z,98307.20
2018-03-28T18:55:03.903Z,98305.54
2018-03-28T18:57:29.866Z,98292.13
2018-03-28T18:59:55.816Z,98294.25
2018-03-28T19:02:21.739Z,98288.86
2018-03-28T19:04:47.696Z,98285.30
2018-03-28T19:07:13.721Z,98276.59
2018-03-28T19:09:40.765Z,98284.95
2018-03-28T19:12:06.694Z,98279.97
2018-03-28T19:14:32.641Z,98276.36
2018-03-28T19:16:58.640Z,98277.48
2018-03-28T19:19:24.636Z,98273.66
2018-03-28T19:21:50.607Z,98272.92
2018-03-28T19:24:16.634Z,98268.78
2018-03-28T19:26:42.601Z,98272.87
2018-03-28T19:29:08.586Z,98267.89
2018-03-28T19:31:34.606Z,98257.06
2018-03-28T19:34:00.578Z,98253.67
2018-03-28T19:36:26.700Z,98262.98
2018-03-28T19:38:52.660Z,98253.78
2018-03-28T19:41:18.598Z,98253.36
2018-03-28T19:43:44.522Z,98250.13
2018-03-28T19:46:10.485Z,98250.48
2018-03-28T19:48:36.518Z,98242.93
2018-03-28T19:51:02.470Z,98243.28
2018-03-28T19:53:28.418Z,98237.14
2018-03-28T19:55:54.380Z,98238.72
2018-03-28T19:58:20.332Z,98231.66
2018-03-28T20:00:46.274Z,98226.58
2018-03-28T20:03:12.255Z,98227.02
2018-03-28T20:05:38.182Z,98219.11
2018-03-28T20:08:04.133Z,98226.18
2018-03-28T20:10:30.099Z,98220.41
2018-03-28T20:12:56.066Z,98219.92
2018-03-28T20:15:22.006Z,98216.64
2018-03-28T20:17:47.976Z,98212.04
2018-03-28T20:20:13.918Z,98209.87
2018-03-28T20:22:39.948Z,98209.41
2018-03-28T20:25:05.895Z,98206.92
2018-03-28T20:27:32.907Z,98204.85
2018-03-28T20:29:58.887Z,98194.73
2018-03-28T20:32:24.839Z,98184.27
2018-03-28T20:34:50.779Z,98181.03
2018-03-28T20:37:16.725Z,98176.78
2018-03-28T20:39:42.681Z,98175.66
2018-03-28T20:42:08.618Z,98170.17
2018-03-28T20:44:34.600Z,98169.67
2018-03-28T20:47:00.527Z,98167.52
2018-03-28T20:49:27.547Z,98163.80
2018-03-28T20:51:53.475Z,98167.48
2018-03-28T20:54:19.789Z,98163.41
2018-03-28T20:56:45.759Z,98160.80
2018-03-28T20:59:11.689Z,98152.40
2018-03-28T21:01:37.649Z,98153.30
2018-03-28T21:04:03.599Z,98146.48
2018-03-28T21:06:29.527Z,98142.86
2018-03-28T21:08:55.480Z,98140.66
2018-03-28T21:11:21.587Z,98142.77
2018-03-28T21:13:47.507Z,98138.78
2018-03-28T21:16:13.430Z,98129.91
2018-03-28T21:18:39.370Z,98127.42
2018-03-28T21:21:05.339Z,98124.67
2018-03-28T21:23:31.292Z,98123.49
2018-03-28T21:25:57.245Z,98112.34
2018-03-28T21:28:23.189Z,98111.52
2018-03-28T21:30:49.211Z,98110.49
2018-03-28T21:33:15.157Z,98104.75
2018-03-28T21:35:41.106Z,98109.39
2018-03-28T21:38:07.065Z,98105.98
2018-03-28T21:40:32.995Z,98106.43
2018-03-28T21:42:58.942Z,98099.29
2018-03-28T21:45:24.898Z,98106.53
2018-03-28T21:47:50.851Z,98112.56
2018-03-28T21:50:16.834Z,98106.55
2018-03-28T21:52:42.763Z,98104.44
2018-03-28T21:55:08.712Z,98097.66
2018-03-28T21:57:34.657Z,98093.63
2018-03-28T22:00:00.901Z,98088.19
2018-03-28T22:02:26.847Z,98076.55
2018-03-28T22:04:52.798Z,98077.06
2018-03-28T22:07:18.797Z,98067.33
2018-03-28T22:09:44.752Z,98063.51
2018-03-28T22:12:10.738Z,98053.09
2018-03-28T22:14:36.711Z,98052.04
2018-03-28T22:17:02.654Z,98043.37
2018-03-28T22:19:28.894Z,98045.44
2018-03-28T22:21:54.813Z,98039.83
2018-03-28T22:24:20.758Z,98028.97
2018-03-28T22:26:46.714Z,98030.19
2018-03-28T22:29:12.640Z,98026.78
2018-03-28T22:31:38.606Z,98023.52
2018-03-28T22:34:04.534Z,98020.11
2018-03-28T22:36:30.504Z,98012.16
2018-03-28T22:38:56.454Z,98012.08
2018-03-28T22:41:22.401Z,98000.41
2018-03-28T22:43:48.324Z,98007.27
2018-03-28T22:46:14.286Z,97996.41
2018-03-28T22:48:40.242Z,97998.80
2018-03-28T22:51:06.218Z,97993.73
2018-03-28T22:53:32.166Z,97996.61
2018-03-28T22:55:58.124Z,97990.34
2018-03-28T22:58:24.074Z,97992.34
2018-03-28T23:00:50.048Z,97983.79
2018-03-28T23:03:15.994Z,97984.45
2018-03-28T23:05:41.933Z,97985.14
2018-03-28T23:08:07.866Z,97983.33
2018-03-28T23:10:33.817Z,97971.95
2018-03-28T23:12:59.768Z,97966.70
2018-03-28T23:15:25.706Z,97966.77
2018-03-28T23:17:51.662Z,97971.83
2018-03-28T23:20:17.610Z,97978.38
2018-03-28T23:22:43.562Z,97975.45
2018-03-28T23:25:09.488Z,97984.97
2018-03-28T23:27:35.454Z,97989.02
2018-03-28T23:30:01.366Z,97984.31
2018-03-28T23:32:27.338Z,97994.06
2018-03-28T23:34:53.289Z,97991.99
2018-03-28T23:37:19.235Z,97998.70
2018-03-28T23:39:45.182Z,97997.50
2018-03-28T23:42:11.112Z,98002.11
2018-03-28T23:44:37.055Z,97974.33
2018-03-28T23:47:02.987Z,97980.38
2018-03-28T23:49:28.953Z,97982.45
2018-03-28T23:51:54.866Z,97983.84
2018-03-28T23:54:20.825Z,97973.14
2018-03-28T23:56:46.768Z,97966.20
2018-03-28T23:59:12.732Z,97961.95
